Time;durP1;ratioP1;P1;durP2;ratioP2;P2;SDS_P1;SDS_P2;PMS_P1;PMS_P2;Temp;Humidity;BMP_temperature;BMP_pressure;BME280_temperature;BME280_humidity;BME280_pressure;Samples;Min_cycle;Max_cycle;Signal;HPM_P1;HPM_P2
2021/06/03 00:00:12;;;;;;;8.70;4.10;;;;;;;16.29;78.09;100793.94;5031459;28;20026;-77
2021/06/03 00:02:38;;;;;;;5.65;3.80;;;;;;;16.34;77.39;100790.53;5031746;28;20021;-76
2021/06/03 00:05:06;;;;;;;9.05;4.55;;;;;;;16.46;77.49;100799.44;5030301;28;20041;-77
2021/06/03 00:07:32;;;;;;;5.47;3.78;;;;;;;16.44;77.48;100783.75;5032379;28;20029;-77
2021/06/03 00:09:57;;;;;;;11.07;4.50;;;;;;;16.13;78.85;100785.81;5050877;28;20040;-76
2021/06/03 00:12:23;;;;;;;10.68;4.10;;;;;;;15.36;79.39;100670.59;5056272;28;20040;-79
2021/06/03 00:14:48;;;;;;;10.98;4.25;;;;;;;16.20;78.95;100780.72;5039385;28;20024;-76
2021/06/03 00:17:14;;;;;;;7.75;4.22;;;;;;;16.00;78.72;100742.16;5056885;28;20491;-79
2021/06/03 00:19:39;;;;;;;7.93;4.05;;;;;;;15.82;80.61;100779.13;5039160;28;20037;-77
2021/06/03 00:22:05;;;;;;;9.77;4.32;;;;;;;15.59;81.41;100791.59;5057406;28;20037;-77
2021/06/03 00:24:30;;;;;;;11.02;4.03;;;;;;;15.84;80.92;100795.66;5052506;28;20028;-74
2021/06/03 00:26:56;;;;;;;13.23;4.57;;;;;;;15.98;79.96;100788.97;5048187;28;20036;-75
2021/06/03 00:29:21;;;;;;;10.02;4.50;;;;;;;16.08;79.08;100771.81;5057218;28;20106;-73
2021/06/03 00:31:47;;;;;;;11.07;4.60;;;;;;;16.21;78.59;100785.94;5039300;28;20067;-72
2021/06/03 00:34:12;;;;;;;9.90;4.70;;;;;;;16.31;78.11;100792.22;5039011;28;20029;-74
2021/06/03 00:36:38;;;;;;;7.80;4.70;;;;;;;16.36;77.63;100793.16;5057470;28;20017;-74
2021/06/03 00:39:04;;;;;;;6.65;3.85;;;;;;;16.08;78.58;100784.84;5057414;28;20033;-72
2021/06/03 00:41:30;;;;;;;8.18;3.88;;;;;;;16.07;78.98;100792.63;5039321;28;20367;-72
2021/06/03 00:43:56;;;;;;;10.05;3.88;;;;;;;15.95;79.14;100765.50;5057406;28;20036;-70
2021/06/03 00:46:22;;;;;;;6.95;3.70;;;;;;;16.09;78.93;100777.91;5057039;28;20037;-70
2021/06/03 00:48:48;;;;;;;9.75;4.07;;;;;;;16.19;78.53;100790.25;5056941;28;20025;-74
2021/06/03 00:51:13;;;;;;;11.25;4.25;;;;;;;16.27;78.31;100795.63;5057578;28;20151;-75
2021/06/03 00:53:42;;;;;;;7.55;4.28;;;;;;;15.93;78.38;100742.88;5056828;28;20029;-75
2021/06/03 00:56:08;;;;;;;8.15;4.50;;;;;;;16.11;78.89;100789.22;5038771;28;20025;-77
2021/06/03 00:58:37;;;;;;;6.25;4.03;;;;;;;15.79;79.55;100781.63;5039229;28;20036;-75
2021/06/03 01:01:04;;;;;;;9.90;3.92;;;;;;;15.93;79.90;100790.63;5038097;28;20768;-74
2021/06/03 01:03:31;;;;;;;9.05;4.07;;;;;;;15.48;80.61;100729.81;5056565;28;20568;-72
2021/06/03 01:06:17;;;;;;;10.13;4.72;;;;;;;15.81;80.52;100775.63;5056708;28;20056;-76
2021/06/03 01:08:49;;;;;;;7.35;4.03;;;;;;;15.89;80.37;100796.63;5056820;28;20028;-77
2021/06/03 01:11:23;;;;;;;10.80;4.53;;;;;;;15.71;80.37;100770.19;5056877;28;20040;-77
2021/06/03 01:14:00;;;;;;;8.18;4.10;;;;;;;15.84;79.77;100788.72;5038870;28;20477;-75
2021/06/03 01:16:27;;;;;;;7.25;4.00;;;;;;;15.78;79.26;100772.06;5056628;28;20033;-78
2021/06/03 01:18:54;;;;;;;13.38;4.50;;;;;;;15.88;79.00;100797.47;5056658;28;20123;-77
2021/06/03 01:21:30;;;;;;;8.43;4.68;;;;;;;15.68;79.60;100795.28;5057201;28;20033;-76
2021/06/03 01:24:10;;;;;;;10.02;4.78;;;;;;;15.76;79.60;100795.44;5018852;28;20123;-77
2021/06/03 01:26:36;;;;;;;7.28;4.03;;;;;;;15.28;80.91;100789.22;5054706;28;20098;-78
2021/06/03 01:29:03;;;;;;;10.07;4.90;;;;;;;15.29;81.86;100793.56;5036070;28;20546;-77
2021/06/03 01:31:30;;;;;;;12.43;4.70;;;;;;;15.36;81.60;100792.88;5054051;28;20039;-77
2021/06/03 01:33:55;;;;;;;8.10;4.40;;;;;;;15.27;81.02;100764.03;5054195;28;20083;-78
2021/06/03 01:36:21;;;;;;;10.05;4.53;;;;;;;15.36;80.79;100787.69;5053807;28;20483;-78
2021/06/03 01:38:47;;;;;;;6.93;4.05;;;;;;;15.34;81.06;100771.16;5053442;28;20032;-78
2021/06/03 01:41:13;;;;;;;5.18;4.32;;;;;;;15.51;80.68;100797.53;5053776;28;20025;-78
2021/06/03 01:43:43;;;;;;;7.88;4.43;;;;;;;15.30;80.67;100765.84;5035729;28;20388;-77
2021/06/03 01:46:09;;;;;;;10.95;3.97;;;;;;;15.57;80.32;100801.13;5053628;28;20029;-77
2021/06/03 01:48:35;;;;;;;6.72;4.00;;;;;;;15.37;80.14;100744.31;5053589;28;20029;-77
2021/06/03 01:51:05;;;;;;;9.63;4.47;;;;;;;15.71;80.17;100791.00;5053490;28;20029;-78
2021/06/03 01:53:31;;;;;;;5.85;4.13;;;;;;;15.42;79.41;100726.22;5054112;28;20021;-75
2021/06/03 01:56:04;;;;;;;8.48;3.83;;;;;;;15.77;78.76;100773.78;5035762;28;20415;-77
2021/06/03 01:58:30;;;;;;;6.15;3.85;;;;;;;15.84;78.08;100772.22;5053335;28;20037;-77
2021/06/03 02:00:56;;;;;;;5.90;3.72;;;;;;;15.26;78.32;100663.44;5053586;28;20072;-77
2021/06/03 02:03:25;;;;;;;7.43;4.20;;;;;;;15.91;77.92;100775.81;5053350;28;20484;-77
2021/06/03 02:05:51;;;;;;;8.90;4.00;;;;;;;15.33;78.36;100701.75;5053136;28;20029;-77
2021/06/03 02:08:16;;;;;;;7.68;3.83;;;;;;;15.63;78.92;100767.41;5035620;28;20040;-77
2021/06/03 02:10:42;;;;;;;8.00;4.05;;;;;;;15.29;80.00;100772.78;5035447;28;20483;-77
2021/06/03 02:13:16;;;;;;;8.05;4.38;;;;;;;15.10;81.81;100789.66;5053680;28;20040;-74
2021/06/03 02:16:16;;;;;;;7.13;3.40;;;;;;;15.03;82.22;100791.25;5035379;28;20021;-77
2021/06/03 02:18:56;;;;;;;7.97;3.90;;;;;;;15.11;82.16;100790.53;5053139;28;20132;-78
2021/06/03 02:21:23;;;;;;;6.68;4.20;;;;;;;14.69;81.78;100727.16;5052890;28;20102;-77
2021/06/03 02:23:50;;;;;;;8.57;4.35;;;;;;;15.11;82.11;100788.81;5034716;28;20035;-77
2021/06/03 02:26:17;;;;;;;6.55;4.15;;;;;;;14.83;81.77;100741.38;5052745;28;20029;-77
2021/06/03 02:28:43;;;;;;;10.65;4.78;;;;;;;15.24;81.94;100795.19;5034925;28;20025;-77
2021/06/03 02:31:10;;;;;;;7.90;4.20;;;;;;;15.37;80.71;100780.72;5052869;28;20029;-77
2021/06/03 02:33:36;;;;;;;7.78;4.40;;;;;;;15.50;79.96;100797.50;5034684;28;20032;-77
2021/06/03 02:36:02;;;;;;;6.68;4.05;;;;;;;15.33;80.44;100803.19;5052321;28;20021;-77
2021/06/03 02:38:32;;;;;;;10.27;4.43;;;;;;;15.26;80.58;100796.09;5052466;28;20029;-75
2021/06/03 02:41:01;;;;;;;6.57;4.50;;;;;;;14.94;80.35;100726.03;5052762;28;20036;-74
2021/06/03 02:43:27;;;;;;;7.40;3.97;;;;;;;15.33;80.06;100800.59;5052374;28;20423;-75
2021/06/03 02:45:54;;;;;;;5.00;3.78;;;;;;;15.37;79.92;100797.22;5052624;28;20029;-74
2021/06/03 02:48:19;;;;;;;8.35;4.13;;;;;;;15.35;79.92;100785.00;5052527;28;20127;-75
2021/06/03 02:50:47;;;;;;;7.68;4.22;;;;;;;15.42;79.26;100788.66;5052329;28;20491;-78
2021/06/03 02:53:13;;;;;;;7.03;4.10;;;;;;;15.39;79.44;100793.78;5034727;28;20506;-75
2021/06/03 02:55:39;;;;;;;8.00;3.92;;;;;;;15.37;79.43;100792.00;5034312;28;20571;-74
2021/06/03 02:58:05;;;;;;;7.05;4.15;;;;;;;15.39;79.45;100799.88;5052324;28;20039;-77
2021/06/03 03:00:33;;;;;;;7.22;4.07;;;;;;;15.38;79.60;100798.09;5048970;28;20040;-77
2021/06/03 03:03:00;;;;;;;8.77;4.85;;;;;;;15.06;79.57;100747.97;5031637;28;20022;-75
2021/06/03 03:05:26;;;;;;;8.70;4.38;;;;;;;15.02;79.69;100753.06;5032036;28;20500;-75
2021/06/03 03:07:51;;;;;;;9.75;4.75;;;;;;;15.37;79.46;100801.56;5032029;28;20048;-76
2021/06/03 03:10:21;;;;;;;7.28;4.57;;;;;;;15.31;79.31;100804.00;5031799;28;20025;-76
2021/06/03 03:12:47;;;;;;;7.65;4.85;;;;;;;15.26;79.94;100808.22;5032060;28;20056;-75
2021/06/03 03:15:14;;;;;;;9.68;4.78;;;;;;;15.32;79.54;100808.38;5031908;28;20033;-75
2021/06/03 03:17:40;;;;;;;7.90;4.80;;;;;;;14.97;79.11;100738.22;5014180;28;20025;-75
2021/06/03 03:20:08;;;;;;;7.47;4.63;;;;;;;15.33;79.29;100799.72;5032074;28;20546;-75
2021/06/03 03:22:33;;;;;;;8.55;4.70;;;;;;;15.40;78.81;100821.56;5014186;28;20388;-75
2021/06/03 03:24:59;;;;;;;7.68;4.95;;;;;;;15.01;78.74;100766.03;5031721;28;20044;-75
2021/06/03 03:27:24;;;;;;;6.50;4.30;;;;;;;15.27;78.80;100821.25;5021491;28;20035;-75
2021/06/03 03:29:50;;;;;;;11.80;5.25;;;;;;;15.15;78.91;100810.56;5051681;28;20537;-75
2021/06/03 03:32:15;;;;;;;8.23;5.68;;;;;;;15.24;79.20;100821.22;5051662;28;20029;-76
2021/06/03 03:34:41;;;;;;;7.72;4.95;;;;;;;15.23;79.06;100824.66;5051678;28;20035;-75
2021/06/03 03:37:06;;;;;;;7.95;5.10;;;;;;;15.19;79.13;100830.63;5051666;28;20036;-75
2021/06/03 03:39:32;;;;;;;8.40;4.88;;;;;;;14.85;79.62;100785.59;5051487;28;20108;-75
2021/06/03 03:41:57;;;;;;;8.32;5.22;;;;;;;15.14;79.81;100837.41;5051659;28;20106;-75
2021/06/03 03:44:23;;;;;;;7.85;4.82;;;;;;;15.08;79.38;100827.75;5051363;28;20029;-80
2021/06/03 03:46:49;;;;;;;6.75;5.32;;;;;;;14.88;79.49;100832.47;5050669;28;20037;-75
2021/06/03 03:49:14;;;;;;;9.50;6.32;;;;;;;14.80;79.86;100826.19;5033654;28;20484;-78
2021/06/03 03:51:40;;;;;;;10.63;6.13;;;;;;;14.85;79.63;100822.88;5043213;28;20058;-79
2021/06/03 03:54:06;;;;;;;9.93;6.20;;;;;;;14.95;79.37;100836.97;5061884;28;20032;-79
2021/06/03 03:56:31;;;;;;;8.48;5.97;;;;;;;14.83;79.77;100808.09;5056418;28;20166;-77
2021/06/03 03:58:58;;;;;;;8.55;5.53;;;;;;;15.11;80.09;100839.97;5061464;28;20028;-75
2021/06/03 04:01:24;;;;;;;6.15;5.55;;;;;;;15.10;80.48;100838.19;5059170;28;20024;-78
2021/06/03 04:03:50;;;;;;;9.40;6.50;;;;;;;14.89;81.35;100823.81;5062204;28;20020;-75
2021/06/03 04:06:16;;;;;;;11.10;6.25;;;;;;;15.07;81.41;100848.53;5062684;28;20490;-75
2021/06/03 04:08:41;;;;;;;11.30;6.43;;;;;;;14.99;81.25;100836.22;5070844;28;20035;-77
2021/06/03 04:11:07;;;;;;;8.18;6.03;;;;;;;14.74;82.55;100834.69;5067876;28;20198;-76
2021/06/03 04:13:32;;;;;;;12.07;6.13;;;;;;;14.71;82.93;100840.69;5071207;28;20032;-78
2021/06/03 04:15:58;;;;;;;7.40;5.95;;;;;;;14.70;83.28;100849.34;5061887;28;20082;-74
2021/06/03 04:18:23;;;;;;;8.68;6.03;;;;;;;14.60;83.01;100825.66;5031302;28;20171;-76
2021/06/03 04:20:49;;;;;;;10.90;6.28;;;;;;;14.62;83.25;100818.78;5051148;28;20143;-75
2021/06/03 04:23:15;;;;;;;10.63;6.13;;;;;;;14.59;83.46;100823.88;5050604;28;20040;-76
2021/06/03 04:25:40;;;;;;;10.30;6.10;;;;;;;14.31;84.04;100768.63;5050830;28;20111;-74
2021/06/03 04:28:06;;;;;;;8.25;6.45;;;;;;;14.55;84.32;100844.59;5051073;28;20079;-74
2021/06/03 04:30:33;;;;;;;8.82;6.38;;;;;;;14.48;84.04;100824.50;5051138;28;20048;-74
2021/06/03 04:32:59;;;;;;;9.05;6.47;;;;;;;14.57;84.02;100847.22;5051142;28;20025;-74
2021/06/03 04:35:26;;;;;;;9.90;7.05;;;;;;;14.68;84.05;100861.41;5051119;28;20402;-73
2021/06/03 04:37:52;;;;;;;9.90;6.85;;;;;;;14.51;84.45;100834.09;5051067;28;20400;-74
2021/06/03 04:40:21;;;;;;;8.35;6.30;;;;;;;14.38;85.00;100801.69;5051496;28;20395;-74
2021/06/03 04:42:48;;;;;;;8.32;7.20;;;;;;;14.70;84.91;100861.44;5051314;28;20025;-74
2021/06/03 04:45:15;;;;;;;8.82;6.70;;;;;;;14.33;84.97;100786.00;5051167;28;20048;-77
2021/06/03 04:47:42;;;;;;;10.20;7.32;;;;;;;14.70;85.14;100844.16;5050883;28;20029;-73
2021/06/03 04:50:08;;;;;;;10.48;6.90;;;;;;;14.94;85.66;100860.31;5033123;28;20025;-74
2021/06/03 04:52:35;;;;;;;12.38;7.78;;;;;;;15.07;84.30;100858.94;5050917;28;20032;-74
2021/06/03 04:55:07;;;;;;;10.25;7.70;;;;;;;15.21;83.91;100867.94;5050933;28;20039;-74
2021/06/03 04:57:33;;;;;;;10.77;7.75;;;;;;;15.12;83.02;100854.72;5052615;28;20021;-74
2021/06/03 04:59:59;;;;;;;12.10;7.35;;;;;;;14.59;84.41;100811.75;5054660;28;20464;-74
2021/06/03 05:02:25;;;;;;;9.63;7.00;;;;;;;14.94;84.25;100874.22;5054701;28;20407;-74
2021/06/03 05:04:54;;;;;;;8.95;7.13;;;;;;;14.94;84.96;100848.22;5036291;28;20487;-73
2021/06/03 05:07:20;;;;;;;8.90;6.85;;;;;;;15.07;83.63;100864.13;5035929;28;20653;-73
2021/06/03 05:09:47;;;;;;;8.35;6.43;;;;;;;15.11;82.51;100868.56;5054423;28;20029;-73
2021/06/03 05:12:13;;;;;;;8.38;6.25;;;;;;;14.89;82.55;100792.63;5036580;28;20083;-73
2021/06/03 05:14:38;;;;;;;8.50;6.63;;;;;;;15.25;81.83;100874.97;5054297;28;20116;-73
2021/06/03 05:17:04;;;;;;;8.27;6.40;;;;;;;15.24;82.65;100868.03;5054222;28;20029;-74
2021/06/03 05:19:30;;;;;;;7.68;6.88;;;;;;;15.02;81.63;100830.22;5053879;28;20437;-74
2021/06/03 05:21:55;;;;;;;8.60;6.18;;;;;;;15.44;81.23;100876.31;5054485;28;20093;-75
2021/06/03 05:24:20;;;;;;;7.65;5.90;;;;;;;15.26;79.59;100816.91;5054326;28;20025;-74
2021/06/03 05:26:46;;;;;;;8.20;5.75;;;;;;;15.66;79.89;100872.47;5054430;28;20021;-74
2021/06/03 05:29:16;;;;;;;10.95;6.30;;;;;;;15.84;77.87;100872.03;5054203;28;20029;-74
2021/06/03 05:31:45;;;;;;;7.03;5.32;;;;;;;15.83;79.62;100883.28;5054216;28;20033;-74
2021/06/03 05:34:15;;;;;;;6.43;5.17;;;;;;;15.73;77.65;100885.63;5054089;28;20035;-74
2021/06/03 05:36:42;;;;;;;8.75;5.25;;;;;;;15.92;77.77;100884.34;5053939;28;20025;-74
2021/06/03 05:39:08;;;;;;;6.53;5.07;;;;;;;15.79;75.98;100888.38;5036339;28;20103;-73
2021/06/03 05:41:36;;;;;;;6.78;4.80;;;;;;;15.55;77.02;100893.88;5053939;28;20021;-74
2021/06/03 05:44:06;;;;;;;7.22;4.70;;;;;;;15.64;77.58;100889.78;5053812;28;20029;-74
2021/06/03 05:46:31;;;;;;;5.57;4.57;;;;;;;15.84;76.33;100902.41;5054038;28;20495;-74
2021/06/03 05:48:59;;;;;;;7.75;4.47;;;;;;;15.73;75.85;100851.78;5053695;28;20036;-74
2021/06/03 05:51:24;;;;;;;7.35;4.72;;;;;;;16.05;75.19;100891.56;5053491;28;20107;-75
2021/06/03 05:53:50;;;;;;;6.00;4.72;;;;;;;15.94;75.28;100899.16;5053720;28;20111;-74
2021/06/03 05:56:15;;;;;;;6.95;4.63;;;;;;;16.11;75.49;100909.03;5053737;28;20395;-74
2021/06/03 05:58:41;;;;;;;6.25;4.40;;;;;;;16.15;74.46;100897.84;5053422;28;20438;-74
2021/06/03 06:01:06;;;;;;;6.05;4.40;;;;;;;16.22;75.87;100891.03;5053536;28;20029;-75
2021/06/03 06:06:30;;;;;;;8.20;4.78;;;;;;;16.14;74.28;100829.25;4991827;28;20134;-75
2021/06/03 06:09:01;;;;;;;6.80;4.30;;;;;;;16.51;73.55;100891.63;4974458;28;20492;-75
2021/06/03 06:11:30;;;;;;;6.97;4.05;;;;;;;16.60;73.90;100870.94;4975420;28;20034;-78
2021/06/03 06:13:56;;;;;;;4.93;4.00;;;;;;;17.04;71.49;100903.03;4991817;28;20382;-74
2021/06/03 06:16:21;;;;;;;7.07;3.88;;;;;;;16.92;72.20;100896.75;4991644;28;20046;-79
2021/06/03 06:18:47;;;;;;;6.03;3.85;;;;;;;16.99;71.77;100895.13;4991512;28;20121;-74
2021/06/03 06:21:16;;;;;;;9.07;4.38;;;;;;;16.97;71.50;100878.56;4991365;28;20125;-74
2021/06/03 06:23:43;;;;;;;7.07;3.80;;;;;;;17.19;70.38;100905.03;4975646;28;20038;-75
2021/06/03 06:26:09;;;;;;;8.90;3.85;;;;;;;17.34;69.46;100900.06;4991166;28;20089;-76
2021/06/03 06:28:35;;;;;;;9.30;3.85;;;;;;;17.44;70.17;100893.25;4991792;28;20523;-76
2021/06/03 06:31:01;;;;;;;4.68;3.65;;;;;;;17.23;68.39;100836.38;4991590;28;20036;-76
2021/06/03 06:33:28;;;;;;;5.55;4.03;;;;;;;17.60;68.83;100896.97;4991771;28;20042;-76
2021/06/03 06:35:53;;;;;;;4.18;3.15;;;;;;;17.75;68.01;100901.53;4991564;28;20495;-76
2021/06/03 06:38:21;;;;;;;6.93;3.50;;;;;;;17.45;67.40;100819.31;4991598;28;20039;-76
2021/06/03 06:40:47;;;;;;;5.82;3.35;;;;;;;18.03;67.53;100886.28;4991407;28;20034;-76
2021/06/03 06:43:13;;;;;;;5.22;3.47;;;;;;;18.08;68.35;100892.44;5070510;28;20044;-78
2021/06/03 06:45:39;;;;;;;6.80;3.65;;;;;;;17.83;70.27;100839.88;5072556;28;20024;-76
2021/06/03 06:48:07;;;;;;;8.00;3.25;;;;;;;18.31;67.74;100884.88;5054508;28;20029;-75
2021/06/03 06:50:34;;;;;;;4.80;3.20;;;;;;;18.42;66.01;100891.09;5072572;28;20059;-75
2021/06/03 06:52:59;;;;;;;6.97;3.40;;;;;;;18.49;66.13;100893.78;5072568;28;20051;-75
2021/06/03 06:55:28;;;;;;;5.28;3.30;;;;;;;18.43;64.44;100892.00;5072270;28;20471;-76
2021/06/03 06:57:55;;;;;;;7.20;3.00;;;;;;;18.43;62.12;100885.03;5072815;28;20038;-75
2021/06/03 07:00:23;;;;;;;6.60;3.28;;;;;;;18.65;65.28;100897.47;5054659;28;20483;-72
2021/06/03 07:02:49;;;;;;;4.85;2.60;;;;;;;18.40;59.43;100876.28;5072318;28;20025;-74
2021/06/03 07:05:15;;;;;;;5.60;2.97;;;;;;;18.41;59.24;100904.16;5054110;28;20021;-77
2021/06/03 07:07:42;;;;;;;3.90;2.65;;;;;;;18.54;58.19;100903.47;5072099;28;20036;-75
2021/06/03 07:10:09;;;;;;;6.45;2.60;;;;;;;18.54;58.39;100900.84;5072288;28;20029;-75
2021/06/03 07:12:35;;;;;;;4.95;3.03;;;;;;;18.79;61.94;100908.94;5072302;28;20028;-75
2021/06/03 07:15:01;;;;;;;6.05;3.03;;;;;;;18.87;61.80;100898.56;5072094;28;20024;-75
2021/06/03 07:17:27;;;;;;;8.27;3.88;;;;;;;18.54;60.76;100871.19;5071866;28;20501;-75
2021/06/03 07:19:53;;;;;;;9.93;3.55;;;;;;;19.07;61.62;100914.47;5050368;28;20056;-76
2021/06/03 07:22:19;;;;;;;7.07;3.83;;;;;;;19.27;58.65;100908.53;5035122;28;20026;-74
2021/06/03 07:24:45;;;;;;;6.03;3.47;;;;;;;19.18;60.13;100911.97;5032137;28;20030;-74
2021/06/03 07:27:11;;;;;;;6.75;3.20;;;;;;;19.08;59.24;100917.09;5031943;28;20392;-74
2021/06/03 07:29:37;;;;;;;7.35;3.42;;;;;;;19.03;58.33;100908.34;5031958;28;20036;-75
2021/06/03 07:32:03;;;;;;;4.55;3.30;;;;;;;18.89;57.86;100913.41;5032263;28;20589;-74
2021/06/03 07:34:29;;;;;;;7.13;3.50;;;;;;;18.81;58.47;100877.56;5009608;28;20041;-74
2021/06/03 07:36:55;;;;;;;6.47;3.00;;;;;;;18.93;55.80;100880.34;5009849;28;20041;-74
2021/06/03 07:39:22;;;;;;;6.15;3.45;;;;;;;19.27;59.07;100929.47;5009812;28;20053;-74
2021/06/03 07:41:48;;;;;;;5.47;3.08;;;;;;;19.11;56.62;100918.84;4993662;28;20100;-74
2021/06/03 07:44:13;;;;;;;7.63;3.22;;;;;;;19.11;55.26;100921.47;5009502;28;20037;-75
2021/06/03 07:46:39;;;;;;;5.30;3.35;;;;;;;19.06;54.12;100908.34;5010042;28;20514;-75
2021/06/03 07:49:06;;;;;;;6.60;3.67;;;;;;;19.01;55.66;100927.50;5009644;28;20559;-74
2021/06/03 07:51:32;;;;;;;5.60;3.10;;;;;;;19.23;55.64;100920.72;5009891;28;20593;-75
2021/06/03 07:53:57;;;;;;;5.13;3.05;;;;;;;19.25;55.67;100937.31;5009820;28;20045;-74
2021/06/03 07:56:23;;;;;;;6.82;3.25;;;;;;;19.23;53.44;100925.97;5009783;28;20040;-75
2021/06/03 07:58:49;;;;;;;5.90;3.20;;;;;;;19.47;56.33;100925.25;5009893;28;20030;-77
2021/06/03 08:01:15;;;;;;;4.40;3.13;;;;;;;19.60;55.71;100907.03;5009726;28;20123;-75
2021/06/03 08:03:41;;;;;;;6.50;3.13;;;;;;;19.70;52.87;100935.03;5009642;28;20609;-74
2021/06/03 08:06:08;;;;;;;6.25;2.92;;;;;;;19.63;51.91;100934.13;5026284;28;20037;-74
2021/06/03 08:08:36;;;;;;;5.88;3.28;;;;;;;19.53;53.75;100922.69;5031677;28;20029;-75
2021/06/03 08:11:03;;;;;;;5.03;3.00;;;;;;;19.55;54.19;100934.06;5031474;28;20594;-74
2021/06/03 08:13:29;;;;;;;5.45;3.08;;;;;;;19.11;56.09;100874.38;5031491;28;20093;-75
2021/06/03 08:15:55;;;;;;;6.68;3.00;;;;;;;19.52;55.57;100928.78;5031174;28;20476;-75
2021/06/03 08:18:20;;;;;;;5.68;3.47;;;;;;;19.18;55.96;100888.41;5037988;28;20491;-74
2021/06/03 08:20:50;;;;;;;6.32;3.40;;;;;;;19.15;56.88;100906.69;5051237;28;20052;-73
2021/06/03 08:23:16;;;;;;;;;;;;;;;19.28;58.03;100931.22;5033352;28;20498;-74
2021/06/03 08:25:42;;;;;;;8.05;3.45;;;;;;;19.23;57.02;100939.03;5051521;28;20004;-75
2021/06/03 08:28:08;;;;;;;7.72;3.13;;;;;;;19.09;55.64;100933.69;5051343;28;20113;-74
2021/06/03 08:30:35;;;;;;;6.53;3.67;;;;;;;19.07;55.29;100943.25;5051086;28;20508;-74
2021/06/03 08:33:02;;;;;;;4.75;3.25;;;;;;;19.02;58.27;100937.09;5048290;28;20094;-74
2021/06/03 08:35:32;;;;;;;4.88;2.92;;;;;;;18.98;57.52;100948.38;5055274;28;20604;-75
2021/06/03 08:38:00;;;;;;;8.00;2.97;;;;;;;18.94;58.25;100954.47;5055257;28;20505;-74
2021/06/03 08:40:28;;;;;;;4.18;2.90;;;;;;;18.89;59.13;100950.03;5055085;28;20483;-74
2021/06/03 08:42:56;;;;;;;6.78;3.30;;;;;;;18.61;60.98;100898.31;5037023;28;20025;-75
2021/06/03 08:45:25;;;;;;;5.68;3.03;;;;;;;18.90;61.92;100953.50;5055043;28;20387;-74
2021/06/03 08:47:52;;;;;;;5.10;3.20;;;;;;;18.92;60.50;100954.44;5054773;28;20036;-75
2021/06/03 08:50:19;;;;;;;6.28;3.47;;;;;;;18.93;62.28;100958.81;5037211;28;20036;-75
2021/06/03 08:52:45;;;;;;;4.07;2.83;;;;;;;19.06;60.46;100957.19;5054870;28;20025;-75
2021/06/03 08:56:14;;;;;;;5.38;2.88;;;;;;;19.25;62.50;100950.38;5054722;28;20036;-75
2021/06/03 08:58:08;;;;;;;4.18;2.97;;;;;;;19.30;59.25;100942.59;5054608;28;20386;-74
2021/06/03 09:00:34;;;;;;;5.53;2.80;;;;;;;19.45;56.62;100945.34;5054679;28;20036;-74
2021/06/03 09:02:59;;;;;;;4.28;2.83;;;;;;;19.48;57.51;100953.22;5055138;28;20021;-74
2021/06/03 09:05:26;;;;;;;5.80;2.78;;;;;;;19.56;54.34;100935.81;5063059;28;20435;-75
2021/06/03 09:07:52;;;;;;;7.03;2.58;;;;;;;19.75;53.94;100941.19;5046557;28;20025;-77
2021/06/03 09:10:30;;;;;;;7.55;2.75;;;;;;;20.03;54.91;100962.34;5064286;28;20025;-77
2021/06/03 09:13:18;;;;;;;6.07;2.83;;;;;;;20.01;54.42;100964.97;5061366;28;20017;-77
2021/06/03 09:15:54;;;;;;;7.57;2.88;;;;;;;19.81;53.00;100928.13;4975288;28;20038;-77
2021/06/03 09:18:37;;;;;;;4.93;2.70;;;;;;;20.09;56.06;100970.25;4992144;28;20070;-77
2021/06/03 09:21:24;;;;;;;4.90;2.42;;;;;;;20.23;54.14;100962.47;4987836;28;20125;-74
2021/06/03 09:24:02;;;;;;;5.82;3.03;;;;;;;20.33;53.33;100972.09;4992132;28;20042;-76
2021/06/03 09:26:30;;;;;;;5.85;2.90;;;;;;;20.63;52.48;100970.47;4992011;28;20034;-79
2021/06/03 09:28:58;;;;;;;9.05;3.33;;;;;;;20.60;53.22;100948.59;4992191;28;20113;-75
2021/06/03 09:31:26;;;;;;;7.88;3.15;;;;;;;20.81;51.78;100972.34;4992457;28;20030;-77
2021/06/03 09:34:11;;;;;;;7.97;3.08;;;;;;;20.67;51.65;100956.53;4992008;28;20049;-78
2021/06/03 09:36:55;;;;;;;8.25;3.13;;;;;;;20.32;51.61;100952.00;4992080;28;20034;-77
2021/06/03 09:39:30;;;;;;;15.48;4.75;;;;;;;20.04;52.98;100940.53;4991673;28;20492;-79
2021/06/03 09:42:02;;;;;;;14.00;4.03;;;;;;;20.02;54.79;100969.31;4992017;28;20061;-78
2021/06/03 09:44:31;;;;;;;6.25;2.70;;;;;;;19.56;52.61;100933.22;4970573;28;20091;-76
2021/06/03 09:47:05;;;;;;;10.07;4.10;;;;;;;19.81;54.98;100977.91;4988359;28;20501;-79
2021/06/03 09:49:36;;;;;;;7.95;3.25;;;;;;;19.65;53.81;100976.94;4990963;28;20100;-79
2021/06/03 09:52:17;;;;;;;6.82;3.30;;;;;;;19.51;56.22;100968.94;5004271;28;20061;-79
2021/06/03 09:54:57;;;;;;;7.07;3.47;;;;;;;19.51;56.57;100984.66;5052299;28;20025;-78
2021/06/03 09:57:30;;;;;;;8.48;3.63;;;;;;;19.49;58.25;100981.16;5052915;28;20090;-79
2021/06/03 10:00:17;;;;;;;9.65;4.30;;;;;;;19.45;57.90;100988.97;5038421;28;20029;-78
2021/06/03 10:02:44;;;;;;;19.77;5.25;;;;;;;19.28;59.89;100967.84;5029930;28;20486;-79
2021/06/03 10:05:15;;;;;;;12.77;4.47;;;;;;;19.42;58.90;100987.19;5048381;28;20075;-80
2021/06/03 10:07:53;;;;;;;11.30;4.03;;;;;;;19.12;55.39;100943.31;5057409;28;20054;-78
2021/06/03 10:10:18;;;;;;;9.18;3.75;;;;;;;19.43;56.54;100991.56;5045467;28;20463;-77
2021/06/03 10:12:47;;;;;;;7.72;3.80;;;;;;;19.44;57.18;100988.09;5033723;28;20083;-77
2021/06/03 10:15:22;;;;;;;6.50;3.60;;;;;;;19.43;54.83;100988.97;5051592;28;20037;-79
2021/06/03 10:18:07;;;;;;;8.20;4.30;;;;;;;19.49;57.59;100970.69;5052803;28;20025;-77
2021/06/03 10:20:50;;;;;;;6.50;3.03;;;;;;;19.53;57.73;100987.31;5053186;28;20118;-75
2021/06/03 10:23:21;;;;;;;5.78;3.63;;;;;;;19.66;57.54;100989.13;5035115;28;20107;-78
2021/06/03 10:25:54;;;;;;;5.35;3.50;;;;;;;19.66;57.26;100977.78;5052841;28;20518;-76
2021/06/03 10:28:21;;;;;;;6.65;3.65;;;;;;;19.80;57.63;100993.59;5035423;28;20025;-79
2021/06/03 10:30:58;;;;;;;8.95;3.58;;;;;;;19.63;57.49;100939.34;5052965;28;20104;-82
2021/06/03 10:33:27;;;;;;;6.78;3.53;;;;;;;19.94;54.37;100985.88;5053106;28;20025;-77
2021/06/03 10:35:54;;;;;;;;;;;;;;;19.93;54.89;100987.63;5019266;28;20029;-76
2021/06/03 10:38:22;;;;;;;5.10;3.83;;;;;;;19.93;55.23;100979.75;5053588;28;19913;-81
2021/06/03 10:40:50;;;;;;;5.82;4.00;;;;;;;20.13;55.52;100981.63;5052989;28;20613;-81
2021/06/03 10:43:16;;;;;;;5.80;4.10;;;;;;;19.73;55.07;100942.91;5034911;28;20037;-77
2021/06/03 10:45:43;;;;;;;5.80;4.40;;;;;;;20.08;56.21;100955.38;5052858;28;20021;-79
2021/06/03 10:48:09;;;;;;;5.32;4.40;;;;;;;20.00;51.50;100962.31;5052761;28;20028;-77
2021/06/03 10:50:45;;;;;;;5.40;4.00;;;;;;;20.03;53.18;100975.47;5034614;28;20075;-78
2021/06/03 10:53:14;;;;;;;8.02;4.60;;;;;;;20.26;51.15;100972.06;5051442;28;20025;-79
2021/06/03 10:55:42;;;;;;;7.13;4.20;;;;;;;20.09;52.10;100985.09;5052528;28;20032;-80
2021/06/03 10:58:10;;;;;;;8.13;5.00;;;;;;;19.92;51.80;100967.53;5052607;28;20032;-79
2021/06/03 11:00:39;;;;;;;7.28;5.22;;;;;;;20.00;53.84;100970.19;5035115;28;20411;-76
2021/06/03 11:03:18;;;;;;;9.05;4.60;;;;;;;20.26;53.82;100986.09;5034437;28;20491;-76
2021/06/03 11:05:45;;;;;;;5.00;4.40;;;;;;;20.08;51.87;100913.44;5052840;28;20028;-77
2021/06/03 11:08:32;;;;;;;7.20;4.38;;;;;;;20.71;51.94;100964.38;5051065;28;20028;-77
2021/06/03 11:11:14;;;;;;;7.22;4.20;;;;;;;20.88;51.42;100959.22;5052722;28;20028;-81
2021/06/03 11:13:48;;;;;;;7.82;4.45;;;;;;;21.05;51.12;100960.13;5051949;28;20503;-75
2021/06/03 11:16:24;;;;;;;7.38;4.10;;;;;;;21.01;50.48;100963.63;5052079;28;20033;-76
2021/06/03 11:18:49;;;;;;;6.60;3.90;;;;;;;21.22;48.46;100970.66;5030783;28;20056;-77
2021/06/03 11:21:30;;;;;;;6.10;3.70;;;;;;;21.36;50.44;100965.41;5032169;28;20033;-77
2021/06/03 11:24:16;;;;;;;6.40;4.40;;;;;;;21.44;51.25;100954.91;5047537;28;20072;-77
2021/06/03 11:26:45;;;;;;;7.68;4.00;;;;;;;21.56;48.12;100964.56;4971420;28;20043;-80
2021/06/03 11:29:30;;;;;;;9.70;4.20;;;;;;;21.44;46.39;100962.78;4971143;28;20076;-77
2021/06/03 11:32:04;;;;;;;7.00;3.83;;;;;;;21.19;47.00;100901.53;4971395;28;20039;-82